sensor_id;sensor_type;location;lat;lon;timestamp;temperature;humidity
65419;DHT22;52027;50.658;14.004;2023-01-15T00:01:31;20.93;37.12
65419;DHT22;52027;50.658;14.004;2023-01-15T00:03:59;20.93;37.16
65419;DHT22;52027;50.658;14.004;2023-01-15T00:06:26;20.88;37.13
65419;DHT22;52027;50.658;14.004;2023-01-15T00:08:52;20.91;37.17
65419;DHT22;52027;50.658;14.004;2023-01-15T00:11:18;20.90;37.14
65419;DHT22;52027;50.658;14.004;2023-01-15T00:13:44;20.90;37.08
65419;DHT22;52027;50.658;14.004;2023-01-15T00:16:14;20.88;37.11
65419;DHT22;52027;50.658;14.004;2023-01-15T00:18:40;20.91;37.11
65419;DHT22;52027;50.658;14.004;2023-01-15T00:21:08;20.88;37.19
65419;DHT22;52027;50.658;14.004;2023-01-15T00:23:33;20.90;37.17
65419;DHT22;52027;50.658;14.004;2023-01-15T00:26:20;20.90;37.08
65419;DHT22;52027;50.658;14.004;2023-01-15T00:29:05;20.88;37.14
65419;DHT22;52027;50.658;14.004;2023-01-15T00:31:32;20.91;37.14
65419;DHT22;52027;50.658;14.004;2023-01-15T00:33:58;20.88;37.17
65419;DHT22;52027;50.658;14.004;2023-01-15T00:36:24;20.88;37.15
65419;DHT22;52027;50.658;14.004;2023-01-15T00:38:50;20.90;37.17
65419;DHT22;52027;50.658;14.004;2023-01-15T00:41:15;20.90;37.19
65419;DHT22;52027;50.658;14.004;2023-01-15T00:43:41;20.91;37.14
65419;DHT22;52027;50.658;14.004;2023-01-15T00:46:06;20.91;37.15
65419;DHT22;52027;50.658;14.004;2023-01-15T00:48:33;20.91;37.17
65419;DHT22;52027;50.658;14.004;2023-01-15T00:50:59;20.90;37.18
65419;DHT22;52027;50.658;14.004;2023-01-15T00:53:24;20.93;37.16
65419;DHT22;52027;50.658;14.004;2023-01-15T00:55:50;20.91;37.13
65419;DHT22;52027;50.658;14.004;2023-01-15T00:58:15;20.93;37.17
65419;DHT22;52027;50.658;14.004;2023-01-15T01:00:40;20.90;37.14
65419;DHT22;52027;50.658;14.004;2023-01-15T01:03:06;20.91;37.17
65419;DHT22;52027;50.658;14.004;2023-01-15T01:05:31;20.90;37.11
65419;DHT22;52027;50.658;14.004;2023-01-15T01:07:56;20.88;37.13
65419;DHT22;52027;50.658;14.004;2023-01-15T01:10:23;20.90;37.17
65419;DHT22;52027;50.658;14.004;2023-01-15T01:12:49;20.91;37.08
65419;DHT22;52027;50.658;14.004;2023-01-15T01:15:19;20.93;37.10
65419;DHT22;52027;50.658;14.004;2023-01-15T01:17:45;20.93;37.14
65419;DHT22;52027;50.658;14.004;2023-01-15T01:20:15;20.91;37.13
65419;DHT22;52027;50.658;14.004;2023-01-15T01:22:41;20.90;37.10
65419;DHT22;52027;50.658;14.004;2023-01-15T01:25:07;20.93;37.07
65419;DHT22;52027;50.658;14.004;2023-01-15T01:27:33;20.93;37.06
65419;DHT22;52027;50.658;14.004;2023-01-15T01:29:58;20.93;37.09
65419;DHT22;52027;50.658;14.004;2023-01-15T01:32:24;20.94;37.11
65419;DHT22;52027;50.658;14.004;2023-01-15T01:34:49;20.94;37.12
65419;DHT22;52027;50.658;14.004;2023-01-15T01:37:14;20.93;37.10
65419;DHT22;52027;50.658;14.004;2023-01-15T01:39:40;20.94;37.06
65419;DHT22;52027;50.658;14.004;2023-01-15T01:42:15;20.96;37.06
65419;DHT22;52027;50.658;14.004;2023-01-15T01:47:15;20.94;37.10
65419;DHT22;52027;50.658;14.004;2023-01-15T01:49:45;20.93;37.09
65419;DHT22;52027;50.658;14.004;2023-01-15T01:52:14;20.96;37.12
65419;DHT22;52027;50.658;14.004;2023-01-15T01:54:43;20.93;37.07
65419;DHT22;52027;50.658;14.004;2023-01-15T01:57:10;20.96;37.09
65419;DHT22;52027;50.658;14.004;2023-01-15T01:59:36;20.93;37.07
65419;DHT22;52027;50.658;14.004;2023-01-15T02:02:02;20.96;37.06
65419;DHT22;52027;50.658;14.004;2023-01-15T02:04:29;20.96;37.07
65419;DHT22;52027;50.658;14.004;2023-01-15T02:06:55;20.97;37.03
65419;DHT22;52027;50.658;14.004;2023-01-15T02:09:22;20.94;37.04
65419;DHT22;52027;50.658;14.004;2023-01-15T02:11:49;20.97;36.99
65419;DHT22;52027;50.658;14.004;2023-01-15T02:17:19;20.98;37.05
65419;DHT22;52027;50.658;14.004;2023-01-15T02:20:14;20.97;37.09
65419;DHT22;52027;50.658;14.004;2023-01-15T02:28:15;20.94;37.09
65419;DHT22;52027;50.658;14.004;2023-01-15T02:30:46;20.94;37.07
65419;DHT22;52027;50.658;14.004;2023-01-15T02:33:23;20.94;37.06
65419;DHT22;52027;50.658;14.004;2023-01-15T02:35:55;20.97;37.07
65419;DHT22;52027;50.658;14.004;2023-01-15T02:38:28;20.94;37.07
65419;DHT22;52027;50.658;14.004;2023-01-15T02:40:57;20.94;37.07
65419;DHT22;52027;50.658;14.004;2023-01-15T02:43:23;20.94;37.06
65419;DHT22;52027;50.658;14.004;2023-01-15T02:45:52;20.97;37.10
65419;DHT22;52027;50.658;14.004;2023-01-15T02:48:23;20.98;37.05
65419;DHT22;52027;50.658;14.004;2023-01-15T02:50:54;20.97;37.02
65419;DHT22;52027;50.658;14.004;2023-01-15T02:53:23;20.94;37.02
65419;DHT22;52027;50.658;14.004;2023-01-15T02:55:51;21.00;37.02
65419;DHT22;52027;50.658;14.004;2023-01-15T02:58:28;20.98;37.03
65419;DHT22;52027;50.658;14.004;2023-01-15T03:00:57;21.00;37.05
65419;DHT22;52027;50.658;14.004;2023-01-15T03:03:35;21.00;37.02
65419;DHT22;52027;50.658;14.004;2023-01-15T03:08:27;20.96;37.03
65419;DHT22;52027;50.658;14.004;2023-01-15T03:16:21;20.98;37.03
65419;DHT22;52027;50.658;14.004;2023-01-15T03:21:38;20.97;37.05
65419;DHT22;52027;50.658;14.004;2023-01-15T03:24:09;20.97;36.97
65419;DHT22;52027;50.658;14.004;2023-01-15T03:26:35;20.97;36.99
65419;DHT22;52027;50.658;14.004;2023-01-15T03:29:02;21.01;36.99
65419;DHT22;52027;50.658;14.004;2023-01-15T03:31:30;20.98;37.01
65419;DHT22;52027;50.658;14.004;2023-01-15T03:33:56;21.00;36.95
65419;DHT22;52027;50.658;14.004;2023-01-15T03:36:21;21.00;37.01
65419;DHT22;52027;50.658;14.004;2023-01-15T03:38:47;21.01;36.97
65419;DHT22;52027;50.658;14.004;2023-01-15T03:41:32;21.03;36.99
65419;DHT22;52027;50.658;14.004;2023-01-15T03:44:30;20.97;37.00
65419;DHT22;52027;50.658;14.004;2023-01-15T03:52:51;20.98;37.05
65419;DHT22;52027;50.658;14.004;2023-01-15T03:55:43;20.97;37.02
65419;DHT22;52027;50.658;14.004;2023-01-15T03:58:11;21.01;36.97
65419;DHT22;52027;50.658;14.004;2023-01-15T04:00:41;20.96;37.05
65419;DHT22;52027;50.658;14.004;2023-01-15T04:03:08;21.01;37.00
65419;DHT22;52027;50.658;14.004;2023-01-15T04:05:36;20.98;36.99
65419;DHT22;52027;50.658;14.004;2023-01-15T04:08:02;20.98;37.06
65419;DHT22;52027;50.658;14.004;2023-01-15T04:10:27;20.98;37.00
65419;DHT22;52027;50.658;14.004;2023-01-15T04:12:53;20.96;37.05
65419;DHT22;52027;50.658;14.004;2023-01-15T04:15:18;20.96;37.09
65419;DHT22;52027;50.658;14.004;2023-01-15T04:17:44;20.94;37.04
65419;DHT22;52027;50.658;14.004;2023-01-15T04:20:10;20.96;37.04
65419;DHT22;52027;50.658;14.004;2023-01-15T04:22:35;20.96;37.06
65419;DHT22;52027;50.658;14.004;2023-01-15T04:25:02;20.96;37.06
65419;DHT22;52027;50.658;14.004;2023-01-15T04:27:27;20.97;37.00
65419;DHT22;52027;50.658;14.004;2023-01-15T04:29:52;20.94;37.03
65419;DHT22;52027;50.658;14.004;2023-01-15T04:32:18;20.94;37.02
65419;DHT22;52027;50.658;14.004;2023-01-15T04:34:44;20.97;37.03
65419;DHT22;52027;50.658;14.004;2023-01-15T04:37:09;20.96;37.00
65419;DHT22;52027;50.658;14.004;2023-01-15T04:39:34;20.94;37.06
65419;DHT22;52027;50.658;14.004;2023-01-15T04:42:00;20.93;37.06
65419;DHT22;52027;50.658;14.004;2023-01-15T04:44:44;20.94;37.06
65419;DHT22;52027;50.658;14.004;2023-01-15T04:47:09;20.93;37.12
65419;DHT22;52027;50.658;14.004;2023-01-15T04:49:34;20.94;37.07
65419;DHT22;52027;50.658;14.004;2023-01-15T04:52:00;20.94;37.07
65419;DHT22;52027;50.658;14.004;2023-01-15T04:54:25;20.91;37.13
65419;DHT22;52027;50.658;14.004;2023-01-15T04:56:53;20.94;37.10
65419;DHT22;52027;50.658;14.004;2023-01-15T04:59:21;20.96;37.10
65419;DHT22;52027;50.658;14.004;2023-01-15T05:01:47;20.91;37.16
65419;DHT22;52027;50.658;14.004;2023-01-15T05:04:12;20.88;37.16
65419;DHT22;52027;50.658;14.004;2023-01-15T05:06:38;20.91;37.21
65419;DHT22;52027;50.658;14.004;2023-01-15T05:09:04;20.91;37.17
65419;DHT22;52027;50.658;14.004;2023-01-15T05:11:30;20.90;37.17
65419;DHT22;52027;50.658;14.004;2023-01-15T05:13:55;20.91;37.14
65419;DHT22;52027;50.658;14.004;2023-01-15T05:16:23;20.90;37.19
65419;DHT22;52027;50.658;14.004;2023-01-15T05:18:50;20.88;37.22
65419;DHT22;52027;50.658;14.004;2023-01-15T05:21:18;20.91;37.15
65419;DHT22;52027;50.658;14.004;2023-01-15T05:23:45;20.90;37.20
65419;DHT22;52027;50.658;14.004;2023-01-15T05:26:10;20.88;37.17
65419;DHT22;52027;50.658;14.004;2023-01-15T05:28:36;20.88;37.17
65419;DHT22;52027;50.658;14.004;2023-01-15T05:31:09;20.90;37.21
65419;DHT22;52027;50.658;14.004;2023-01-15T05:33:35;20.87;37.24
65419;DHT22;52027;50.658;14.004;2023-01-15T05:36:07;20.84;37.25
65419;DHT22;52027;50.658;14.004;2023-01-15T05:38:33;20.86;37.25
65419;DHT22;52027;50.658;14.004;2023-01-15T05:41:02;20.86;37.24
65419;DHT22;52027;50.658;14.004;2023-01-15T05:43:48;20.87;37.22
65419;DHT22;52027;50.658;14.004;2023-01-15T05:46:13;20.86;37.21
65419;DHT22;52027;50.658;14.004;2023-01-15T05:48:39;20.86;37.25
65419;DHT22;52027;50.658;14.004;2023-01-15T05:51:04;20.84;37.31
65419;DHT22;52027;50.658;14.004;2023-01-15T05:53:29;20.81;37.25
65419;DHT22;52027;50.658;14.004;2023-01-15T05:56:00;20.84;37.28
65419;DHT22;52027;50.658;14.004;2023-01-15T05:58:25;20.83;37.29
65419;DHT22;52027;50.658;14.004;2023-01-15T06:00:51;20.83;37.26
65419;DHT22;52027;50.658;14.004;2023-01-15T06:03:16;20.81;37.32
65419;DHT22;52027;50.658;14.004;2023-01-15T06:05:41;20.80;37.29
65419;DHT22;52027;50.658;14.004;2023-01-15T06:08:10;20.80;37.29
65419;DHT22;52027;50.658;14.004;2023-01-15T06:10:35;20.81;37.32
65419;DHT22;52027;50.658;14.004;2023-01-15T06:13:00;20.81;37.32
65419;DHT22;52027;50.658;14.004;2023-01-15T06:15:26;20.81;37.29
65419;DHT22;52027;50.658;14.004;2023-01-15T06:17:51;20.76;37.32
65419;DHT22;52027;50.658;14.004;2023-01-15T06:20:16;20.80;37.30
65419;DHT22;52027;50.658;14.004;2023-01-15T06:22:42;20.77;37.35
65419;DHT22;52027;50.658;14.004;2023-01-15T06:25:07;20.77;37.33
65419;DHT22;52027;50.658;14.004;2023-01-15T06:27:33;20.77;37.35
65419;DHT22;52027;50.658;14.004;2023-01-15T06:29:58;20.77;37.35
65419;DHT22;52027;50.658;14.004;2023-01-15T06:32:24;20.76;37.39
65419;DHT22;52027;50.658;14.004;2023-01-15T06:34:50;20.77;37.42
65419;DHT22;52027;50.658;14.004;2023-01-15T06:37:15;20.79;37.39
65419;DHT22;52027;50.658;14.004;2023-01-15T06:39:40;20.76;37.39
65419;DHT22;52027;50.658;14.004;2023-01-15T06:42:07;20.77;37.41
65419;DHT22;52027;50.658;14.004;2023-01-15T06:44:51;20.77;37.38
65419;DHT22;52027;50.658;14.004;2023-01-15T06:47:35;20.76;37.41
65419;DHT22;52027;50.658;14.004;2023-01-15T06:50:01;20.75;37.49
65419;DHT22;52027;50.658;14.004;2023-01-15T06:52:27;20.75;37.41
65419;DHT22;52027;50.658;14.004;2023-01-15T06:54:54;20.75;37.49
65419;DHT22;52027;50.658;14.004;2023-01-15T06:57:19;20.76;37.41
65419;DHT22;52027;50.658;14.004;2023-01-15T06:59:45;20.73;37.41
65419;DHT22;52027;50.658;14.004;2023-01-15T07:02:11;20.73;37.44
65419;DHT22;52027;50.658;14.004;2023-01-15T07:04:36;20.76;37.43
65419;DHT22;52027;50.658;14.004;2023-01-15T07:07:02;20.75;37.46
65419;DHT22;52027;50.658;14.004;2023-01-15T07:09:27;20.75;37.49
65419;DHT22;52027;50.658;14.004;2023-01-15T07:11:52;20.73;37.51
65419;DHT22;52027;50.658;14.004;2023-01-15T07:14:23;20.75;37.47
65419;DHT22;52027;50.658;14.004;2023-01-15T07:16:49;20.76;37.48
65419;DHT22;52027;50.658;14.004;2023-01-15T07:19:16;20.72;37.47
65419;DHT22;52027;50.658;14.004;2023-01-15T07:21:41;20.72;37.46
65419;DHT22;52027;50.658;14.004;2023-01-15T07:24:07;20.73;37.50
65419;DHT22;52027;50.658;14.004;2023-01-15T07:26:33;20.73;37.47
65419;DHT22;52027;50.658;14.004;2023-01-15T07:28:58;20.75;37.50
65419;DHT22;52027;50.658;14.004;2023-01-15T07:31:24;20.70;37.47
65419;DHT22;52027;50.658;14.004;2023-01-15T07:33:49;20.75;37.50
65419;DHT22;52027;50.658;14.004;2023-01-15T07:36:14;20.73;37.44
65419;DHT22;52027;50.658;14.004;2023-01-15T07:38:40;20.72;37.44
65419;DHT22;52027;50.658;14.004;2023-01-15T07:41:05;20.73;37.50
65419;DHT22;52027;50.658;14.004;2023-01-15T07:43:49;20.70;37.47
65419;DHT22;52027;50.658;14.004;2023-01-15T07:46:33;20.72;37.45
65419;DHT22;52027;50.658;14.004;2023-01-15T07:49:17;20.69;37.51
65419;DHT22;52027;50.658;14.004;2023-01-15T07:52:01;20.72;37.53
65419;DHT22;52027;50.658;14.004;2023-01-15T07:54:26;20.70;37.51
65419;DHT22;52027;50.658;14.004;2023-01-15T07:56:53;20.73;37.50
65419;DHT22;52027;50.658;14.004;2023-01-15T07:59:19;20.70;37.47
65419;DHT22;52027;50.658;14.004;2023-01-15T08:01:45;20.70;37.45
65419;DHT22;52027;50.658;14.004;2023-01-15T08:04:10;20.70;37.47
65419;DHT22;52027;50.658;14.004;2023-01-15T08:06:36;20.70;37.56
65419;DHT22;52027;50.658;14.004;2023-01-15T08:09:02;20.72;37.50
65419;DHT22;52027;50.658;14.004;2023-01-15T08:11:28;20.73;37.51
65419;DHT22;52027;50.658;14.004;2023-01-15T08:14:12;20.73;37.49
65419;DHT22;52027;50.658;14.004;2023-01-15T08:16:56;20.73;37.47
65419;DHT22;52027;50.658;14.004;2023-01-15T08:19:21;20.73;37.46
65419;DHT22;52027;50.658;14.004;2023-01-15T08:21:49;20.70;37.48
65419;DHT22;52027;50.658;14.004;2023-01-15T08:24:15;20.72;37.47
65419;DHT22;52027;50.658;14.004;2023-01-15T08:26:40;20.72;37.49
65419;DHT22;52027;50.658;14.004;2023-01-15T08:29:05;20.75;37.46
65419;DHT22;52027;50.658;14.004;2023-01-15T08:31:31;20.72;37.44
65419;DHT22;52027;50.658;14.004;2023-01-15T08:33:56;20.72;37.48
65419;DHT22;52027;50.658;14.004;2023-01-15T08:36:21;20.73;37.50
65419;DHT22;52027;50.658;14.004;2023-01-15T08:38:50;20.69;37.53
65419;DHT22;52027;50.658;14.004;2023-01-15T08:41:15;20.72;37.49
65419;DHT22;52027;50.658;14.004;2023-01-15T08:43:40;20.72;37.43
65419;DHT22;52027;50.658;14.004;2023-01-15T08:46:06;20.73;37.47
65419;DHT22;52027;50.658;14.004;2023-01-15T08:48:32;20.73;37.57
65419;DHT22;52027;50.658;14.004;2023-01-15T08:50:58;20.73;37.47
65419;DHT22;52027;50.658;14.004;2023-01-15T08:53:23;20.70;37.47
65419;DHT22;52027;50.658;14.004;2023-01-15T08:55:49;20.70;37.48
65419;DHT22;52027;50.658;14.004;2023-01-15T08:58:15;20.72;37.50
65419;DHT22;52027;50.658;14.004;2023-01-15T09:00:41;20.72;37.50
65419;DHT22;52027;50.658;14.004;2023-01-15T09:03:06;20.67;37.48
65419;DHT22;52027;50.658;14.004;2023-01-15T09:05:32;20.70;37.51
65419;DHT22;52027;50.658;14.004;2023-01-15T09:07:57;20.70;37.50
65419;DHT22;52027;50.658;14.004;2023-01-15T09:10:23;20.69;37.48
65419;DHT22;52027;50.658;14.004;2023-01-15T09:12:48;20.72;37.50
65419;DHT22;52027;50.658;14.004;2023-01-15T09:15:14;20.69;37.54
65419;DHT22;52027;50.658;14.004;2023-01-15T09:17:40;20.70;37.45
65419;DHT22;52027;50.658;14.004;2023-01-15T09:20:07;20.70;37.51
65419;DHT22;52027;50.658;14.004;2023-01-15T09:22:33;20.70;37.51
65419;DHT22;52027;50.658;14.004;2023-01-15T09:24:58;20.70;37.50
65419;DHT22;52027;50.658;14.004;2023-01-15T09:27:25;20.66;37.50
65419;DHT22;52027;50.658;14.004;2023-01-15T09:29:50;20.69;37.51
65419;DHT22;52027;50.658;14.004;2023-01-15T09:32:17;20.72;37.55
65419;DHT22;52027;50.658;14.004;2023-01-15T09:34:43;20.69;37.55
65419;DHT22;52027;50.658;14.004;2023-01-15T09:37:08;20.69;37.52
65419;DHT22;52027;50.658;14.004;2023-01-15T09:39:36;20.67;37.48
65419;DHT22;52027;50.658;14.004;2023-01-15T09:42:50;20.69;37.46
65419;DHT22;52027;50.658;14.004;2023-01-15T09:45:36;20.69;37.48
65419;DHT22;52027;50.658;14.004;2023-01-15T09:51:42;20.72;37.50
65419;DHT22;52027;50.658;14.004;2023-01-15T09:57:01;20.70;37.47
65419;DHT22;52027;50.658;14.004;2023-01-15T09:59:33;20.73;37.44
65419;DHT22;52027;50.658;14.004;2023-01-15T10:02:04;20.70;37.48
65419;DHT22;52027;50.658;14.004;2023-01-15T10:04:40;20.70;37.48
65419;DHT22;52027;50.658;14.004;2023-01-15T10:07:16;20.72;37.47
65419;DHT22;52027;50.658;14.004;2023-01-15T10:09:43;20.70;37.41
65419;DHT22;52027;50.658;14.004;2023-01-15T10:12:20;20.70;37.43
65419;DHT22;52027;50.658;14.004;2023-01-15T10:15:51;20.70;37.44
65419;DHT22;52027;50.658;14.004;2023-01-15T10:18:14;20.73;37.46
65419;DHT22;52027;50.658;14.004;2023-01-15T10:23:14;20.76;37.43
65419;DHT22;52027;50.658;14.004;2023-01-15T10:25:49;20.77;37.44
65419;DHT22;52027;50.658;14.004;2023-01-15T10:28:24;20.76;37.36
65419;DHT22;52027;50.658;14.004;2023-01-15T10:30:53;20.77;37.43
65419;DHT22;52027;50.658;14.004;2023-01-15T10:36:27;20.79;37.38
65419;DHT22;52027;50.658;14.004;2023-01-15T10:39:03;20.80;37.38
65419;DHT22;52027;50.658;14.004;2023-01-15T10:47:17;20.81;37.38
65419;DHT22;52027;50.658;14.004;2023-01-15T10:49:48;20.81;37.38
65419;DHT22;52027;50.658;14.004;2023-01-15T10:52:24;20.83;37.34
65419;DHT22;52027;50.658;14.004;2023-01-15T10:54:56;20.84;37.30
65419;DHT22;52027;50.658;14.004;2023-01-15T10:57:50;20.86;37.30
65419;DHT22;52027;50.658;14.004;2023-01-15T11:00:16;20.86;37.29
65419;DHT22;52027;50.658;14.004;2023-01-15T11:03:05;20.86;37.23
65419;DHT22;52027;50.658;14.004;2023-01-15T11:05:55;20.88;37.29
65419;DHT22;52027;50.658;14.004;2023-01-15T11:08:23;20.93;37.20
65419;DHT22;52027;50.658;14.004;2023-01-15T11:10:56;20.93;37.19
65419;DHT22;52027;50.658;14.004;2023-01-15T11:13:24;20.94;37.13
65419;DHT22;52027;50.658;14.004;2023-01-15T11:16:16;20.94;37.16
65419;DHT22;52027;50.658;14.004;2023-01-15T11:19:02;20.97;37.12
65419;DHT22;52027;50.658;14.004;2023-01-15T11:21:47;20.97;37.13
65419;DHT22;52027;50.658;14.004;2023-01-15T11:24:15;20.98;37.13
65419;DHT22;52027;50.658;14.004;2023-01-15T11:26:46;21.03;37.11
65419;DHT22;52027;50.658;14.004;2023-01-15T11:29:26;21.04;37.06
65419;DHT22;52027;50.658;14.004;2023-01-15T11:31:55;21.04;37.08
65419;DHT22;52027;50.658;14.004;2023-01-15T11:34:21;21.06;37.06
65419;DHT22;52027;50.658;14.004;2023-01-15T11:36:47;21.07;37.00
65419;DHT22;52027;50.658;14.004;2023-01-15T11:39:26;21.07;37.04
65419;DHT22;52027;50.658;14.004;2023-01-15T11:42:02;21.08;36.98
65419;DHT22;52027;50.658;14.004;2023-01-15T11:44:55;21.08;37.02
65419;DHT22;52027;50.658;14.004;2023-01-15T11:47:52;21.11;37.02
65419;DHT22;52027;50.658;14.004;2023-01-15T11:50:51;21.10;36.99
65419;DHT22;52027;50.658;14.004;2023-01-15T11:53:23;21.11;36.95
65419;DHT22;52027;50.658;14.004;2023-01-15T11:55:57;21.12;36.93
65419;DHT22;52027;50.658;14.004;2023-01-15T11:58:26;21.11;36.90
65419;DHT22;52027;50.658;14.004;2023-01-15T12:00:52;21.14;36.95
65419;DHT22;52027;50.658;14.004;2023-01-15T12:03:21;21.14;36.91
65419;DHT22;52027;50.658;14.004;2023-01-15T12:05:58;21.15;36.92
65419;DHT22;52027;50.658;14.004;2023-01-15T12:08:42;21.17;36.83
65419;DHT22;52027;50.658;14.004;2023-01-15T12:19:26;21.23;36.79
65419;DHT22;52027;50.658;14.004;2023-01-15T12:25:01;21.23;36.76
65419;DHT22;52027;50.658;14.004;2023-01-15T12:27:41;21.21;36.81
65419;DHT22;52027;50.658;14.004;2023-01-15T12:32:56;21.21;36.75
65419;DHT22;52027;50.658;14.004;2023-01-15T12:35:30;21.23;36.78
65419;DHT22;52027;50.658;14.004;2023-01-15T12:40:51;21.25;36.77
65419;DHT22;52027;50.658;14.004;2023-01-15T12:43:23;21.25;36.77
65419;DHT22;52027;50.658;14.004;2023-01-15T12:46:14;21.25;36.67
65419;DHT22;52027;50.658;14.004;2023-01-15T12:49:18;21.27;36.68
65419;DHT22;52027;50.658;14.004;2023-01-15T12:54:10;21.27;36.66
65419;DHT22;52027;50.658;14.004;2023-01-15T12:56:57;21.27;36.71
65419;DHT22;52027;50.658;14.004;2023-01-15T12:59:32;21.28;36.67
65419;DHT22;52027;50.658;14.004;2023-01-15T13:02:24;21.28;36.62
65419;DHT22;52027;50.658;14.004;2023-01-15T13:05:17;21.28;36.67
65419;DHT22;52027;50.658;14.004;2023-01-15T13:07:48;21.30;36.61
65419;DHT22;52027;50.658;14.004;2023-01-15T13:10:24;21.27;36.64
65419;DHT22;52027;50.658;14.004;2023-01-15T13:12:54;21.25;36.73
65419;DHT22;52027;50.658;14.004;2023-01-15T13:15:27;21.25;36.71
65419;DHT22;52027;50.658;14.004;2023-01-15T13:18:06;21.28;36.73
65419;DHT22;52027;50.658;14.004;2023-01-15T13:20:50;21.25;36.68
65419;DHT22;52027;50.658;14.004;2023-01-15T13:23:43;21.27;36.74
65419;DHT22;52027;50.658;14.004;2023-01-15T13:29:15;21.27;36.74
65419;DHT22;52027;50.658;14.004;2023-01-15T13:32:05;21.28;36.70
65419;DHT22;52027;50.658;14.004;2023-01-15T13:34:46;21.28;36.72
65419;DHT22;52027;50.658;14.004;2023-01-15T13:39:54;21.28;36.68
65419;DHT22;52027;50.658;14.004;2023-01-15T13:42:22;21.30;36.70
65419;DHT22;52027;50.658;14.004;2023-01-15T13:47:33;21.31;36.61
65419;DHT22;52027;50.658;14.004;2023-01-15T13:50:30;21.28;36.63
65419;DHT22;52027;50.658;14.004;2023-01-15T13:55:37;21.31;36.66
65419;DHT22;52027;50.658;14.004;2023-01-15T13:58:20;21.28;36.69
65419;DHT22;52027;50.658;14.004;2023-01-15T14:00:46;21.32;36.66
65419;DHT22;52027;50.658;14.004;2023-01-15T14:03:29;21.30;36.62
65419;DHT22;52027;50.658;14.004;2023-01-15T14:06:00;21.31;36.56
65419;DHT22;52027;50.658;14.004;2023-01-15T14:08:41;21.32;36.63
65419;DHT22;52027;50.658;14.004;2023-01-15T14:28:48;21.31;36.53
65419;DHT22;52027;50.658;14.004;2023-01-15T14:36:26;21.35;36.54
65419;DHT22;52027;50.658;14.004;2023-01-15T14:38:56;21.35;36.47
65419;DHT22;52027;50.658;14.004;2023-01-15T14:41:28;21.35;36.49
65419;DHT22;52027;50.658;14.004;2023-01-15T14:43:56;21.37;36.41
65419;DHT22;52027;50.658;14.004;2023-01-15T14:46:33;21.34;36.50
65419;DHT22;52027;50.658;14.004;2023-01-15T14:49:00;21.35;36.53
65419;DHT22;52027;50.658;14.004;2023-01-15T14:51:31;21.35;36.44
65419;DHT22;52027;50.658;14.004;2023-01-15T14:54:09;21.32;36.52
65419;DHT22;52027;50.658;14.004;2023-01-15T14:56:56;21.34;36.50
65419;DHT22;52027;50.658;14.004;2023-01-15T14:59:43;21.34;36.53
65419;DHT22;52027;50.658;14.004;2023-01-15T15:02:24;21.34;36.52
65419;DHT22;52027;50.658;14.004;2023-01-15T15:04:56;21.34;36.48
65419;DHT22;52027;50.658;14.004;2023-01-15T15:07:32;21.35;36.56
65419;DHT22;52027;50.658;14.004;2023-01-15T15:10:06;21.37;36.49
65419;DHT22;52027;50.658;14.004;2023-01-15T15:15:35;21.35;36.53
65419;DHT22;52027;50.658;14.004;2023-01-15T15:18:07;21.31;36.59
65419;DHT22;52027;50.658;14.004;2023-01-15T15:29:05;21.31;36.60
65419;DHT22;52027;50.658;14.004;2023-01-15T15:31:36;21.32;36.57
65419;DHT22;52027;50.658;14.004;2023-01-15T15:34:05;21.31;36.64
65419;DHT22;52027;50.658;14.004;2023-01-15T15:36:32;21.31;36.68
65419;DHT22;52027;50.658;14.004;2023-01-15T15:39:14;21.32;36.66
65419;DHT22;52027;50.658;14.004;2023-01-15T15:41:43;21.28;36.64
65419;DHT22;52027;50.658;14.004;2023-01-15T15:47:23;21.28;36.67
65419;DHT22;52027;50.658;14.004;2023-01-15T15:50:19;21.30;36.70
65419;DHT22;52027;50.658;14.004;2023-01-15T15:52:48;21.28;36.67
65419;DHT22;52027;50.658;14.004;2023-01-15T15:55:15;21.30;36.66
65419;DHT22;52027;50.658;14.004;2023-01-15T15:57:40;21.30;36.67
65419;DHT22;52027;50.658;14.004;2023-01-15T16:00:16;21.34;36.67
65419;DHT22;52027;50.658;14.004;2023-01-15T16:02:42;21.32;36.65
65419;DHT22;52027;50.658;14.004;2023-01-15T16:07:42;21.30;36.62
65419;DHT22;52027;50.658;14.004;2023-01-15T16:10:18;21.30;36.66
65419;DHT22;52027;50.658;14.004;2023-01-15T16:12:48;21.32;36.57
65419;DHT22;52027;50.658;14.004;2023-01-15T16:15:19;21.30;36.63
65419;DHT22;52027;50.658;14.004;2023-01-15T16:17:47;21.34;36.54
65419;DHT22;52027;50.658;14.004;2023-01-15T16:20:15;21.32;36.64
65419;DHT22;52027;50.658;14.004;2023-01-15T16:22:48;21.32;36.61
65419;DHT22;52027;50.658;14.004;2023-01-15T16:25:20;21.31;36.60
65419;DHT22;52027;50.658;14.004;2023-01-15T16:27:46;21.34;36.60
65419;DHT22;52027;50.658;14.004;2023-01-15T16:30:13;21.34;36.60
65419;DHT22;52027;50.658;14.004;2023-01-15T16:32:41;21.32;36.57
65419;DHT22;52027;50.658;14.004;2023-01-15T16:35:20;21.34;36.50
65419;DHT22;52027;50.658;14.004;2023-01-15T16:37:49;21.31;36.50
65419;DHT22;52027;50.658;14.004;2023-01-15T16:42:59;21.31;36.47
65419;DHT22;52027;50.658;14.004;2023-01-15T16:45:26;21.32;36.50
65419;DHT22;52027;50.658;14.004;2023-01-15T16:50:34;21.32;36.59
65419;DHT22;52027;50.658;14.004;2023-01-15T16:53:02;21.31;36.54
65419;DHT22;52027;50.658;14.004;2023-01-15T17:00:36;21.34;36.47
65419;DHT22;52027;50.658;14.004;2023-01-15T17:03:02;21.32;36.41
65419;DHT22;52027;50.658;14.004;2023-01-15T17:05:28;21.35;36.38
65419;DHT22;52027;50.658;14.004;2023-01-15T17:07:53;21.32;36.44
65419;DHT22;52027;50.658;14.004;2023-01-15T17:10:21;21.32;36.44
65419;DHT22;52027;50.658;14.004;2023-01-15T17:12:47;21.32;36.57
65419;DHT22;52027;50.658;14.004;2023-01-15T17:17:38;21.34;36.38
65419;DHT22;52027;50.658;14.004;2023-01-15T17:20:04;21.32;36.47
65419;DHT22;52027;50.658;14.004;2023-01-15T17:22:31;21.34;36.41
65419;DHT22;52027;50.658;14.004;2023-01-15T17:24:58;21.32;36.34
65419;DHT22;52027;50.658;14.004;2023-01-15T17:27:25;21.32;36.43
65419;DHT22;52027;50.658;14.004;2023-01-15T17:29:52;21.34;36.47
65419;DHT22;52027;50.658;14.004;2023-01-15T17:32:24;21.34;36.40
65419;DHT22;52027;50.658;14.004;2023-01-15T17:34:50;21.31;36.41
65419;DHT22;52027;50.658;14.004;2023-01-15T17:37:15;21.31;36.46
65419;DHT22;52027;50.658;14.004;2023-01-15T17:39:41;21.32;36.37
65419;DHT22;52027;50.658;14.004;2023-01-15T17:42:15;21.32;36.47
65419;DHT22;52027;50.658;14.004;2023-01-15T17:44:41;21.34;36.38